createdAt,value
2017-07-04T00:00:47.435Z,4.43
2017-07-04T00:03:16.248Z,4.03
2017-07-04T00:05:43.734Z,4.57
2017-07-04T00:08:11.229Z,4.17
2017-07-04T00:10:39.138Z,3.70
2017-07-04T00:13:06.637Z,4.50
2017-07-04T00:15:34.221Z,3.73
2017-07-04T00:18:02.181Z,4.07
2017-07-04T00:20:32.024Z,3.43
2017-07-04T00:22:59.553Z,3.97
2017-07-04T00:25:29.385Z,3.53
2017-07-04T00:27:56.849Z,3.30
2017-07-04T00:30:24.376Z,3.53
2017-07-04T00:32:53.269Z,3.10
2017-07-04T00:35:20.773Z,3.50
2017-07-04T00:37:48.281Z,3.50
2017-07-04T00:40:16.170Z,2.80
2017-07-04T00:42:43.709Z,3.40
2017-07-04T00:45:11.593Z,3.00
2017-07-04T00:47:39.149Z,2.60
2017-07-04T00:50:06.670Z,3.13
2017-07-04T00:52:34.148Z,3.13
2017-07-04T00:55:02.113Z,2.73
2017-07-04T00:57:29.672Z,2.80
2017-07-04T00:59:57.555Z,2.60
2017-07-04T01:02:25.419Z,2.70
2017-07-04T01:04:53.373Z,2.43
2017-07-04T01:07:21.236Z,3.10
2017-07-04T01:09:48.721Z,2.73
2017-07-04T01:12:16.254Z,2.93
2017-07-04T01:14:44.226Z,2.70
2017-07-04T01:17:12.189Z,2.70
2017-07-04T01:19:40.161Z,2.77
2017-07-04T01:22:08.972Z,3.17
2017-07-04T01:24:36.509Z,2.50
2017-07-04T01:27:04.382Z,3.00
2017-07-04T01:29:33.238Z,2.23
2017-07-04T01:32:00.818Z,3.10
2017-07-04T01:34:28.300Z,2.10
2017-07-04T01:36:55.834Z,2.40
2017-07-04T01:39:23.718Z,2.60
2017-07-04T01:41:51.197Z,2.50
2017-07-04T01:44:20.664Z,2.00
2017-07-04T01:46:48.133Z,2.57
2017-07-04T01:49:16.081Z,2.20
2017-07-04T01:51:44.053Z,2.20
2017-07-04T01:54:11.918Z,2.00
2017-07-04T01:56:39.885Z,2.07
2017-07-04T01:59:07.359Z,2.40
2017-07-04T02:01:35.309Z,2.20
2017-07-04T02:04:02.777Z,2.20
2017-07-04T02:06:30.733Z,2.00
2017-07-04T02:08:58.293Z,2.07
2017-07-04T02:11:25.853Z,2.00
2017-07-04T02:13:54.746Z,1.70
2017-07-04T02:16:22.624Z,2.10
2017-07-04T02:18:50.185Z,1.77
2017-07-04T02:21:17.654Z,2.00
2017-07-04T02:23:45.182Z,2.30
2017-07-04T02:26:13.053Z,2.07
2017-07-04T02:28:41.018Z,1.93
2017-07-04T02:31:08.885Z,2.47
2017-07-04T02:33:36.849Z,2.53
2017-07-04T02:36:04.411Z,2.43
2017-07-04T02:38:32.298Z,1.90
2017-07-04T02:41:00.729Z,2.40
2017-07-04T02:43:28.309Z,1.87
2017-07-04T02:45:55.877Z,2.13
2017-07-04T02:48:25.706Z,2.10
2017-07-04T02:50:53.241Z,2.17
2017-07-04T02:53:21.126Z,2.33
2017-07-04T02:55:48.684Z,2.10
2017-07-04T02:58:16.174Z,2.23
2017-07-04T03:00:43.642Z,1.60
2017-07-04T03:03:11.137Z,1.90
2017-07-04T03:05:38.696Z,2.27
2017-07-04T03:08:06.664Z,1.90
2017-07-04T03:10:35.456Z,2.03
2017-07-04T03:13:05.277Z,2.23
2017-07-04T03:15:33.139Z,2.20
2017-07-04T03:18:01.097Z,2.30
2017-07-04T03:20:29.065Z,2.00
2017-07-04T03:22:57.035Z,2.13
2017-07-04T03:25:25.002Z,1.93
2017-07-04T03:27:54.422Z,1.60
2017-07-04T03:30:23.230Z,1.83
2017-07-04T03:32:50.717Z,2.00
2017-07-04T03:35:18.209Z,2.10
2017-07-04T03:37:46.998Z,1.87
2017-07-04T03:40:15.882Z,2.10
2017-07-04T03:42:43.369Z,1.70
2017-07-04T03:45:10.898Z,2.00
2017-07-04T03:47:39.719Z,2.10
2017-07-04T03:50:07.186Z,2.00
2017-07-04T03:52:34.706Z,2.03
2017-07-04T03:55:02.263Z,2.33
2017-07-04T03:57:30.231Z,2.27
2017-07-04T03:59:58.098Z,2.50
2017-07-04T04:02:25.985Z,2.20
2017-07-04T04:04:53.526Z,2.00
2017-07-04T04:07:21.534Z,1.80
2017-07-04T04:09:49.054Z,2.10
2017-07-04T04:12:17.014Z,2.10
2017-07-04T04:14:45.031Z,2.80
2017-07-04T04:17:12.542Z,1.83
2017-07-04T04:19:40.514Z,2.40
2017-07-04T04:22:10.333Z,2.03
2017-07-04T04:24:38.299Z,2.50
2017-07-04T04:27:06.261Z,2.10
2017-07-04T04:29:34.161Z,2.03
2017-07-04T04:32:01.657Z,2.27
2017-07-04T04:34:29.137Z,2.73
2017-07-04T04:36:57.106Z,2.70
2017-07-04T04:39:25.080Z,2.83
2017-07-04T04:41:53.879Z,2.43
2017-07-04T04:44:21.766Z,1.80
2017-07-04T04:46:51.241Z,2.50
2017-07-04T04:49:19.109Z,2.83
2017-07-04T04:51:47.070Z,2.60
2017-07-04T04:54:15.038Z,2.20
2017-07-04T04:56:43.015Z,2.20
2017-07-04T04:59:10.877Z,2.30
2017-07-04T05:01:38.757Z,2.40
2017-07-04T05:04:06.329Z,2.93
2017-07-04T05:06:33.866Z,2.80
2017-07-04T05:09:01.817Z,2.80
2017-07-04T05:11:29.306Z,2.93
2017-07-04T05:13:56.837Z,2.67
2017-07-04T05:16:24.326Z,2.80
2017-07-04T05:18:51.849Z,3.00
2017-07-04T05:21:19.822Z,2.67
2017-07-04T05:23:48.640Z,2.30
2017-07-04T05:26:16.128Z,2.43
2017-07-04T05:28:43.622Z,2.93
2017-07-04T05:31:11.085Z,3.10
2017-07-04T05:33:38.968Z,3.37
2017-07-04T05:36:06.549Z,2.97
2017-07-04T05:38:35.966Z,3.10
2017-07-04T05:41:03.469Z,2.80
2017-07-04T05:43:33.307Z,2.50
2017-07-04T05:46:00.773Z,2.70
2017-07-04T05:48:28.290Z,2.87
2017-07-04T05:50:56.158Z,3.37
2017-07-04T05:53:24.122Z,2.97
2017-07-04T05:55:52.968Z,3.10
2017-07-04T05:58:20.445Z,2.97
2017-07-04T06:00:47.918Z,2.80
2017-07-04T06:03:15.401Z,3.10
2017-07-04T06:05:42.950Z,2.93
2017-07-04T06:08:10.926Z,3.40
2017-07-04T06:10:38.406Z,3.20
2017-07-04T06:13:05.925Z,3.33
2017-07-04T06:15:33.893Z,3.50
2017-07-04T06:18:01.374Z,3.70
2017-07-04T06:20:28.913Z,3.80
2017-07-04T06:22:58.745Z,3.83
2017-07-04T06:25:26.219Z,3.80
2017-07-04T06:27:53.711Z,5.20
2017-07-04T06:30:21.197Z,4.23
2017-07-04T06:32:49.158Z,4.07
2017-07-04T06:35:17.138Z,3.43
2017-07-04T06:37:45.097Z,4.13
2017-07-04T06:40:12.961Z,4.23
2017-07-04T06:42:40.529Z,3.67
2017-07-04T06:45:08.489Z,3.93
2017-07-04T06:47:36.453Z,4.17
2017-07-04T06:50:04.902Z,4.10
2017-07-04T06:52:32.393Z,3.90
2017-07-04T06:55:01.207Z,4.80
2017-07-04T06:57:28.694Z,4.73
2017-07-04T06:59:56.170Z,5.20
2017-07-04T07:02:23.799Z,5.60
2017-07-04T07:04:51.275Z,5.40
2017-07-04T07:07:18.769Z,5.37
2017-07-04T07:09:46.737Z,8.37
2017-07-04T07:12:14.601Z,9.87
2017-07-04T07:14:42.582Z,10.03
2017-07-04T07:17:10.549Z,12.80
2017-07-04T07:19:39.328Z,12.33
2017-07-04T07:22:07.297Z,16.57
2017-07-04T07:24:36.193Z,14.10
2017-07-04T07:27:04.159Z,12.20
2017-07-04T07:29:32.122Z,10.10
2017-07-04T07:32:00.010Z,9.70
2017-07-04T07:34:27.509Z,8.40
2017-07-04T07:36:55.014Z,9.77
2017-07-04T07:39:22.975Z,8.17
2017-07-04T07:41:50.945Z,8.80
2017-07-04T07:44:18.834Z,7.53
2017-07-04T07:46:46.302Z,7.30
2017-07-04T07:49:13.798Z,8.10
2017-07-04T07:51:41.381Z,7.87
2017-07-04T07:54:10.142Z,6.63
2017-07-04T07:56:37.638Z,7.83
2017-07-04T07:59:05.608Z,8.30
2017-07-04T08:01:33.565Z,7.50
2017-07-04T08:04:01.451Z,7.73
2017-07-04T08:06:28.989Z,6.90
2017-07-04T08:08:56.999Z,6.70
2017-07-04T08:11:24.514Z,6.50
2017-07-04T08:13:52.405Z,6.13
2017-07-04T08:16:19.933Z,5.53
2017-07-04T08:18:47.817Z,4.87
2017-07-04T08:21:15.302Z,4.90
2017-07-04T08:23:42.817Z,5.40
2017-07-04T08:26:10.698Z,5.07
2017-07-04T08:28:38.287Z,5.03
2017-07-04T08:31:05.806Z,5.40
2017-07-04T08:33:33.766Z,4.13
2017-07-04T08:36:01.737Z,4.83
2017-07-04T08:38:29.706Z,4.90
2017-07-04T08:40:59.549Z,12.60
2017-07-04T08:43:27.034Z,14.57
2017-07-04T08:45:54.642Z,30.20
2017-07-04T08:48:22.614Z,32.33
2017-07-04T08:50:50.510Z,33.10
2017-07-04T08:53:18.944Z,28.60
2017-07-04T08:55:46.833Z,29.63
2017-07-04T08:58:14.373Z,32.10
2017-07-04T09:00:42.342Z,32.10
2017-07-04T09:03:10.310Z,33.13
2017-07-04T09:05:40.154Z,33.23
2017-07-04T09:08:07.702Z,35.10
2017-07-04T09:10:36.162Z,32.27
2017-07-04T09:13:04.989Z,35.20
2017-07-04T09:15:32.509Z,34.87
2017-07-04T09:18:00.473Z,33.73
2017-07-04T09:20:28.366Z,33.73
2017-07-04T09:22:56.782Z,34.97
2017-07-04T09:25:24.285Z,34.00
2017-07-04T09:27:53.062Z,33.20
2017-07-04T09:30:21.446Z,34.30
2017-07-04T09:32:49.321Z,32.23
2017-07-04T09:35:16.821Z,32.67
2017-07-04T09:37:45.234Z,33.17
2017-07-04T09:40:12.801Z,33.60
2017-07-04T09:42:40.774Z,30.73
2017-07-04T09:45:08.282Z,32.40
2017-07-04T09:47:35.762Z,31.93
2017-07-04T09:50:03.341Z,31.10
2017-07-04T09:52:31.309Z,31.20
2017-07-04T09:54:59.207Z,29.83
2017-07-04T09:57:26.686Z,31.03
2017-07-04T09:59:54.179Z,30.07
2017-07-04T10:02:21.657Z,30.37
2017-07-04T10:04:49.552Z,29.10
2017-07-04T10:07:17.075Z,31.13
2017-07-04T10:09:45.041Z,29.30
2017-07-04T10:12:13.006Z,30.97
2017-07-04T10:14:40.497Z,29.30
2017-07-04T10:17:08.025Z,29.23
2017-07-04T10:19:35.993Z,29.13
2017-07-04T10:22:04.003Z,28.87
2017-07-04T10:24:31.561Z,28.67
2017-07-04T10:26:59.084Z,27.40
2017-07-04T10:29:27.046Z,28.63
2017-07-04T10:31:54.919Z,29.23
2017-07-04T10:34:22.882Z,30.03
2017-07-04T10:36:50.849Z,29.13
2017-07-04T10:39:18.860Z,27.57
2017-07-04T10:41:46.373Z,28.23
2017-07-04T10:44:16.217Z,27.27
2017-07-04T10:46:43.745Z,27.53
2017-07-04T10:49:11.633Z,26.87
2017-07-04T10:51:39.106Z,27.03
2017-07-04T10:54:06.606Z,26.50
2017-07-04T10:59:05.681Z,27.93
2017-07-04T11:01:33.156Z,25.90
2017-07-04T11:04:00.650Z,26.27
2017-07-04T11:06:29.549Z,26.20
2017-07-04T11:08:58.406Z,26.13
2017-07-04T11:11:25.985Z,25.10
2017-07-04T11:13:53.546Z,25.80
2017-07-04T11:16:21.438Z,25.53
2017-07-04T11:18:49.829Z,26.67
2017-07-04T11:21:17.350Z,24.93
2017-07-04T11:23:46.218Z,24.97
2017-07-04T11:26:14.621Z,26.47
2017-07-04T11:28:42.513Z,23.83
2017-07-04T11:31:09.993Z,23.53
2017-07-04T11:33:37.498Z,25.47
2017-07-04T11:36:06.262Z,23.10
2017-07-04T11:38:33.845Z,24.03
2017-07-04T11:41:01.755Z,24.67
2017-07-04T11:43:29.273Z,23.93
2017-07-04T11:45:58.070Z,24.73
2017-07-04T11:48:26.026Z,23.80
2017-07-04T11:50:53.894Z,23.07
2017-07-04T11:53:21.822Z,23.00
2017-07-04T11:55:49.358Z,24.10
2017-07-04T11:58:16.854Z,23.23
2017-07-04T12:00:44.331Z,24.27
2017-07-04T12:03:12.300Z,23.23
2017-07-04T12:05:40.173Z,23.93
2017-07-04T12:08:08.065Z,23.60
2017-07-04T12:10:36.509Z,22.73
2017-07-04T12:13:04.403Z,21.47
2017-07-04T12:15:31.937Z,23.17
2017-07-04T12:17:59.900Z,23.40
2017-07-04T12:20:27.811Z,23.50
2017-07-04T12:22:55.277Z,23.67
2017-07-04T12:25:22.789Z,23.13
2017-07-04T12:27:50.757Z,22.10
2017-07-04T12:30:20.594Z,21.17
2017-07-04T12:32:48.072Z,21.20
2017-07-04T12:35:15.566Z,21.60
2017-07-04T12:37:43.138Z,22.70
2017-07-04T12:40:12.973Z,22.10
2017-07-04T12:42:40.529Z,21.23
2017-07-04T12:45:08.070Z,21.17
2017-07-04T12:47:36.037Z,22.13
2017-07-04T12:50:04.891Z,21.83
2017-07-04T12:52:32.381Z,20.80
2017-07-04T12:55:02.226Z,20.10
2017-07-04T12:57:29.749Z,19.83
2017-07-04T12:59:57.642Z,20.07
2017-07-04T13:02:26.081Z,20.80
2017-07-04T13:04:53.656Z,20.27
2017-07-04T13:07:21.550Z,20.10
2017-07-04T13:09:49.046Z,20.60
2017-07-04T13:12:17.562Z,18.50
2017-07-04T13:14:45.467Z,19.53
2017-07-04T13:17:12.994Z,19.67
2017-07-04T13:19:40.881Z,18.70
2017-07-04T13:22:08.410Z,20.43
2017-07-04T13:24:36.319Z,19.43
2017-07-04T13:27:03.838Z,19.10
2017-07-04T13:29:31.810Z,18.50
2017-07-04T13:31:59.707Z,18.90
2017-07-04T13:34:27.186Z,18.77
2017-07-04T13:36:54.674Z,18.77
2017-07-04T13:39:22.283Z,18.90
2017-07-04T13:41:49.813Z,18.50
2017-07-04T13:44:17.693Z,19.30
2017-07-04T13:46:45.178Z,19.30
2017-07-04T13:49:12.701Z,18.77
2017-07-04T13:51:40.214Z,18.50
2017-07-04T13:54:07.702Z,17.70
2017-07-04T13:56:35.592Z,17.87
2017-07-04T13:59:03.113Z,18.77
2017-07-04T14:01:30.607Z,18.33
2017-07-04T14:03:59.124Z,19.07
2017-07-04T14:06:26.606Z,18.90
2017-07-04T14:08:54.110Z,17.80
2017-07-04T14:11:21.598Z,18.70
2017-07-04T14:13:49.087Z,17.43
2017-07-04T14:16:16.978Z,17.97
2017-07-04T14:18:44.455Z,18.23
2017-07-04T14:21:11.970Z,23.77
2017-07-04T14:23:39.849Z,32.43
2017-07-04T14:26:10.320Z,39.57
2017-07-04T14:28:38.361Z,46.90
2017-07-04T14:31:05.849Z,46.17
2017-07-04T14:33:33.392Z,50.13
2017-07-04T14:36:00.890Z,62.50
2017-07-04T14:38:28.806Z,72.83
2017-07-04T14:40:57.259Z,84.10
2017-07-04T14:43:25.154Z,85.00
2017-07-04T14:45:52.697Z,87.43
2017-07-04T14:48:20.246Z,85.53
2017-07-04T14:50:48.136Z,85.77
2017-07-04T14:53:15.662Z,81.50
2017-07-04T14:55:43.548Z,76.60
2017-07-04T14:58:11.098Z,73.00
2017-07-04T15:00:39.001Z,76.30
2017-07-04T15:03:06.548Z,73.30
2017-07-04T15:05:34.051Z,72.87
2017-07-04T15:08:01.583Z,68.57
2017-07-04T15:10:30.019Z,68.57
2017-07-04T15:12:57.548Z,67.27
2017-07-04T15:15:25.034Z,66.57
2017-07-04T15:17:52.542Z,61.97
2017-07-04T15:20:20.029Z,62.30
2017-07-04T15:22:47.925Z,60.57
2017-07-04T15:25:15.419Z,60.57
2017-07-04T15:27:43.018Z,59.10
2017-07-04T15:30:10.506Z,57.50
2017-07-04T15:32:38.043Z,60.10
2017-07-04T15:35:05.999Z,59.20
2017-07-04T15:37:33.958Z,58.63
2017-07-04T15:40:01.525Z,56.50
2017-07-04T15:42:31.382Z,55.13
2017-07-04T15:44:59.868Z,54.23
2017-07-04T15:47:27.374Z,53.37
2017-07-04T15:49:55.269Z,51.90
2017-07-04T15:52:22.766Z,56.00
2017-07-04T15:54:50.373Z,52.87
2017-07-04T15:57:18.290Z,52.50
2017-07-04T15:59:45.901Z,50.70
2017-07-04T16:02:13.795Z,50.20
2017-07-04T16:04:41.290Z,49.90
2017-07-04T16:07:08.807Z,51.17
2017-07-04T16:09:36.335Z,50.27
2017-07-04T16:12:04.218Z,50.50
2017-07-04T16:14:31.754Z,50.03
2017-07-04T16:16:59.719Z,50.27
2017-07-04T16:19:27.586Z,49.40
2017-07-04T16:21:55.556Z,51.43
2017-07-04T16:24:23.430Z,49.10
2017-07-04T16:26:51.315Z,48.83
2017-07-04T16:29:18.789Z,48.80
2017-07-04T16:31:46.282Z,50.53
2017-07-04T16:34:13.758Z,45.80
2017-07-04T16:36:41.655Z,42.93
2017-07-04T16:39:09.130Z,41.10
2017-07-04T16:41:36.637Z,41.70
2017-07-04T16:44:04.522Z,40.63
2017-07-04T16:46:32.000Z,39.97
2017-07-04T16:48:59.518Z,40.77
2017-07-04T16:51:27.406Z,40.90
2017-07-04T16:53:54.950Z,41.10
2017-07-04T16:56:22.952Z,40.93
2017-07-04T16:58:50.469Z,38.60
2017-07-04T17:01:18.338Z,39.80
2017-07-04T17:03:45.899Z,38.47
2017-07-04T17:06:13.866Z,40.40
2017-07-04T17:08:41.771Z,38.17
2017-07-04T17:11:09.242Z,38.00
2017-07-04T17:13:36.731Z,36.20
2017-07-04T17:16:05.162Z,35.03
2017-07-04T17:18:32.677Z,36.00
2017-07-04T17:21:00.550Z,32.80
2017-07-04T17:23:28.438Z,32.23
2017-07-04T17:25:55.910Z,29.53
2017-07-04T17:28:23.426Z,31.27
2017-07-04T17:30:51.398Z,27.27
2017-07-04T17:33:19.361Z,27.10
2017-07-04T17:35:47.330Z,27.67
2017-07-04T17:38:15.197Z,23.07
2017-07-04T17:40:43.086Z,20.40
2017-07-04T17:43:10.561Z,22.40
2017-07-04T17:45:38.078Z,22.00
2017-07-04T17:48:05.950Z,19.33
2017-07-04T17:50:33.842Z,19.17
2017-07-04T17:53:01.318Z,19.00
2017-07-04T17:55:28.826Z,18.10
2017-07-04T17:57:56.790Z,18.60
2017-07-04T18:00:24.686Z,19.03
2017-07-04T18:02:52.160Z,19.53
2017-07-04T18:05:19.677Z,18.03
2017-07-04T18:07:47.642Z,17.07
2017-07-04T18:10:15.522Z,16.33
2017-07-04T18:12:43.433Z,16.00
2017-07-04T18:15:10.961Z,14.20
2017-07-04T18:17:38.453Z,15.90
2017-07-04T18:20:05.961Z,27.83
2017-07-04T18:22:33.834Z,48.23
2017-07-04T18:25:01.384Z,55.00
2017-07-04T18:27:29.285Z,56.43
2017-07-04T18:29:58.760Z,53.20
2017-07-04T18:32:26.269Z,46.70
2017-07-04T18:34:53.792Z,42.97
2017-07-04T18:37:21.280Z,40.77
2017-07-04T18:39:48.791Z,32.70
2017-07-04T18:42:16.268Z,32.23
2017-07-04T18:44:43.807Z,25.87
2017-07-04T18:47:11.392Z,24.40
2017-07-04T18:49:38.899Z,21.93
2017-07-04T18:52:07.347Z,19.20
2017-07-04T18:54:34.854Z,18.23
2017-07-04T18:57:02.351Z,16.93
2017-07-04T18:59:29.842Z,15.60
2017-07-04T19:01:57.334Z,15.67
2017-07-04T19:04:24.850Z,16.60
2017-07-04T19:06:53.292Z,14.23
2017-07-04T19:09:20.778Z,11.57
2017-07-04T19:11:48.298Z,20.50
2017-07-04T19:14:15.787Z,23.50
2017-07-04T19:16:43.290Z,19.70
2017-07-04T19:19:13.054Z,21.77
2017-07-04T19:21:42.933Z,13.97
2017-07-04T19:24:11.772Z,25.73
2017-07-04T19:26:40.701Z,26.00
2017-07-04T19:29:09.534Z,24.93
2017-07-04T19:31:38.400Z,26.33
2017-07-04T19:34:07.229Z,27.83
2017-07-04T19:36:37.465Z,26.70
2017-07-04T19:39:06.292Z,27.10
2017-07-04T19:41:35.157Z,29.20
2017-07-04T19:44:04.009Z,13.77
2017-07-04T19:46:32.874Z,12.57
2017-07-04T19:51:37.207Z,8.30
2017-07-04T19:54:05.555Z,7.80
2017-07-04T19:56:35.404Z,6.63
2017-07-04T19:59:04.227Z,5.23
2017-07-04T20:01:33.076Z,5.23
2017-07-04T20:04:02.874Z,5.00
2017-07-04T20:06:32.726Z,4.30
2017-07-04T20:09:01.556Z,3.97
2017-07-04T20:11:29.829Z,4.07
2017-07-04T20:13:58.074Z,3.73
2017-07-04T20:16:27.085Z,4.03
2017-07-04T20:18:55.348Z,3.57
2017-07-04T20:21:23.613Z,3.70
2017-07-04T20:23:52.536Z,3.93
2017-07-04T20:26:20.906Z,3.00
2017-07-04T20:28:49.897Z,3.50
2017-07-04T20:31:20.141Z,4.10
2017-07-04T20:33:49.794Z,3.63
2017-07-04T20:36:18.074Z,3.77
2017-07-04T20:38:46.749Z,3.70
2017-07-04T20:41:17.181Z,3.57
2017-07-04T20:43:46.008Z,3.50
2017-07-04T20:46:14.293Z,3.70
2017-07-04T20:48:41.859Z,3.80
2017-07-04T20:51:09.398Z,3.63
2017-07-04T20:53:39.118Z,3.40
2017-07-04T20:56:06.606Z,4.00
2017-07-04T20:58:36.043Z,4.50
2017-07-04T21:01:04.507Z,3.87
2017-07-04T21:03:32.810Z,4.23
2017-07-04T21:06:04.498Z,4.10
2017-07-04T21:08:32.790Z,4.30
2017-07-04T21:11:00.290Z,4.63
2017-07-04T21:13:28.443Z,4.90
2017-07-04T21:15:56.783Z,4.40
2017-07-04T21:18:26.429Z,5.07
2017-07-04T21:20:54.536Z,4.63
2017-07-04T21:23:22.136Z,4.20
2017-07-04T21:25:49.668Z,4.33
2017-07-04T21:28:17.175Z,4.90
2017-07-04T21:30:44.654Z,4.40
2017-07-04T21:33:12.151Z,4.80
2017-07-04T21:35:39.641Z,4.43
2017-07-04T21:38:07.161Z,4.07
2017-07-04T21:40:34.671Z,4.60
2017-07-04T21:43:02.163Z,4.30
2017-07-04T21:45:29.663Z,4.30
2017-07-04T21:47:57.148Z,4.03
2017-07-04T21:50:25.151Z,4.47
2017-07-04T21:52:52.641Z,4.50
2017-07-04T21:55:20.188Z,5.03
2017-07-04T21:57:47.720Z,5.57
2017-07-04T22:00:15.272Z,4.53
2017-07-04T22:02:43.230Z,4.90
2017-07-04T22:05:11.125Z,5.47
2017-07-04T22:07:38.632Z,5.50
2017-07-04T22:10:07.088Z,5.00
2017-07-04T22:12:34.579Z,5.20
2017-07-04T22:15:02.079Z,5.73
2017-07-04T22:17:29.587Z,5.60
2017-07-04T22:19:57.074Z,4.80
2017-07-04T22:22:24.950Z,4.87
2017-07-04T22:24:52.456Z,4.67
2017-07-04T22:27:19.945Z,5.17
2017-07-04T22:29:47.839Z,4.67
2017-07-04T22:32:15.326Z,4.70
2017-07-04T22:34:42.854Z,4.97
2017-07-04T22:37:10.333Z,5.37
2017-07-04T22:39:37.947Z,4.70
2017-07-04T22:42:05.857Z,5.00
2017-07-04T22:44:33.348Z,5.93
2017-07-04T22:47:00.850Z,5.20
2017-07-04T22:49:28.368Z,4.37
2017-07-04T22:51:55.869Z,5.37
2017-07-04T22:54:23.362Z,4.40
2017-07-04T22:56:50.877Z,5.00
2017-07-04T22:59:18.366Z,4.60
2017-07-04T23:01:45.880Z,5.30
2017-07-04T23:04:13.762Z,4.70
2017-07-04T23:06:41.268Z,4.60
2017-07-04T23:09:08.809Z,4.70
2017-07-04T23:11:36.293Z,4.77
2017-07-04T23:14:03.792Z,5.40
2017-07-04T23:16:31.263Z,5.77
2017-07-04T23:18:59.034Z,4.70
2017-07-04T23:21:26.506Z,5.10
2017-07-04T23:23:54.006Z,4.60
2017-07-04T23:26:21.898Z,4.67
2017-07-04T23:28:49.377Z,4.80
2017-07-04T23:31:16.877Z,5.23
2017-07-04T23:33:44.364Z,4.93
2017-07-04T23:36:11.898Z,4.97
2017-07-04T23:38:39.787Z,5.10
2017-07-04T23:41:08.859Z,5.27
2017-07-04T23:43:38.750Z,4.53
2017-07-04T23:46:06.342Z,4.60
2017-07-04T23:48:35.842Z,4.70
2017-07-04T23:51:03.725Z,4.60
2017-07-04T23:53:31.234Z,4.67
2017-07-04T23:55:58.727Z,4.53
2017-07-04T23:58:26.630Z,4.77
